createdAt,value
2018-12-07T00:00:11.863Z,-79
2018-12-07T00:01:11.815Z,-80
2018-12-07T00:02:11.910Z,-79
2018-12-07T00:03:11.865Z,-79
2018-12-07T00:04:11.894Z,-80
2018-12-07T00:05:11.843Z,-80
2018-12-07T00:06:11.961Z,-79
2018-12-07T00:07:11.929Z,-79
2018-12-07T00:08:12.052Z,-79
2018-12-07T00:09:11.904Z,-79
2018-12-07T00:10:11.858Z,-80
2018-12-07T00:11:11.885Z,-80
2018-12-07T00:12:11.856Z,-80
2018-12-07T00:13:11.898Z,-79
2018-12-07T00:14:13.707Z,-79
2018-12-07T00:15:11.811Z,-79
2018-12-07T00:16:11.951Z,-80
2018-12-07T00:17:12.097Z,-78
2018-12-07T00:18:12.087Z,-77
2018-12-07T00:19:11.872Z,-80
2018-12-07T00:20:11.898Z,-79
2018-12-07T00:21:11.912Z,-80
2018-12-07T00:22:11.986Z,-80
2018-12-07T00:23:11.919Z,-80
2018-12-07T00:24:11.991Z,-80
2018-12-07T00:25:11.995Z,-79
2018-12-07T00:26:12.022Z,-78
2018-12-07T00:27:11.954Z,-80
2018-12-07T00:28:11.828Z,-80
2018-12-07T00:29:11.940Z,-78
2018-12-07T00:30:11.868Z,-80
2018-12-07T00:31:12.019Z,-79
2018-12-07T00:32:11.863Z,-80
2018-12-07T00:33:11.957Z,-79
2018-12-07T00:34:11.974Z,-79
2018-12-07T00:35:12.062Z,-80
2018-12-07T00:36:11.860Z,-79
2018-12-07T00:37:12.206Z,-77
2018-12-07T00:38:11.904Z,-80
2018-12-07T00:39:11.820Z,-80
2018-12-07T00:40:11.985Z,-78
2018-12-07T00:41:11.945Z,-79
2018-12-07T00:42:12.271Z,-79
2018-12-07T00:43:11.937Z,-80
2018-12-07T00:44:11.994Z,-80
2018-12-07T00:45:11.948Z,-78
2018-12-07T00:46:11.819Z,-80
2018-12-07T00:47:12.062Z,-79
2018-12-07T00:48:12.020Z,-78
2018-12-07T00:49:11.834Z,-80
2018-12-07T00:50:11.844Z,-79
2018-12-07T00:51:11.802Z,-79
2018-12-07T00:52:11.911Z,-79
2018-12-07T00:53:11.787Z,-79
2018-12-07T00:54:12.143Z,-77
2018-12-07T00:55:11.971Z,-79
2018-12-07T00:56:11.958Z,-78
2018-12-07T00:57:12.061Z,-78
2018-12-07T00:58:12.231Z,-78
2018-12-07T00:59:12.013Z,-79
2018-12-07T01:00:11.839Z,-79
2018-12-07T01:01:11.764Z,-80
2018-12-07T01:02:11.963Z,-79
2018-12-07T01:03:11.836Z,-80
2018-12-07T01:04:11.828Z,-79
2018-12-07T01:05:11.766Z,-80
2018-12-07T01:06:11.988Z,-79
2018-12-07T01:07:11.877Z,-79
2018-12-07T01:08:12.109Z,-78
2018-12-07T01:09:12.198Z,-78
2018-12-07T01:10:11.926Z,-78
2018-12-07T01:11:11.991Z,-79
2018-12-07T01:12:12.005Z,-79
2018-12-07T01:13:11.838Z,-80
2018-12-07T01:14:11.989Z,-80
2018-12-07T01:15:12.130Z,-78
2018-12-07T01:16:11.814Z,-80
2018-12-07T01:17:11.821Z,-79
2018-12-07T01:18:11.848Z,-80
2018-12-07T01:19:11.964Z,-79
2018-12-07T01:20:11.945Z,-80
2018-12-07T01:21:11.936Z,-79
2018-12-07T01:22:11.946Z,-79
2018-12-07T01:23:12.029Z,-79
2018-12-07T01:24:11.971Z,-79
2018-12-07T01:25:11.943Z,-79
2018-12-07T01:26:11.901Z,-79
2018-12-07T01:27:11.894Z,-78
2018-12-07T01:28:11.903Z,-80
2018-12-07T01:29:11.822Z,-79
2018-12-07T01:30:11.798Z,-79
2018-12-07T01:31:11.901Z,-80
2018-12-07T01:32:11.856Z,-80
2018-12-07T01:33:11.778Z,-79
2018-12-07T01:34:11.693Z,-80
2018-12-07T01:35:11.759Z,-80
2018-12-07T01:36:11.852Z,-80
2018-12-07T01:37:11.790Z,-79
2018-12-07T01:38:11.875Z,-79
2018-12-07T01:39:11.768Z,-80
2018-12-07T01:40:11.719Z,-80
2018-12-07T01:41:11.701Z,-79
2018-12-07T01:42:11.737Z,-80
2018-12-07T01:43:11.782Z,-80
2018-12-07T01:44:11.966Z,-79
2018-12-07T01:45:11.774Z,-79
2018-12-07T01:46:11.718Z,-80
2018-12-07T01:47:11.723Z,-79
2018-12-07T01:48:11.763Z,-79
2018-12-07T01:49:11.810Z,-80
2018-12-07T01:50:11.846Z,-80
2018-12-07T01:51:11.717Z,-79
2018-12-07T01:52:11.724Z,-80
2018-12-07T01:53:12.216Z,-78
2018-12-07T01:54:11.978Z,-79
2018-12-07T01:55:11.732Z,-79
2018-12-07T01:56:11.888Z,-78
2018-12-07T01:57:12.044Z,-80
2018-12-07T01:58:11.753Z,-79
2018-12-07T01:59:11.807Z,-78
2018-12-07T02:00:11.848Z,-79
2018-12-07T02:01:11.925Z,-77
2018-12-07T02:02:11.830Z,-80
2018-12-07T02:03:11.716Z,-79
2018-12-07T02:04:11.673Z,-80
2018-12-07T02:05:11.850Z,-78
2018-12-07T02:06:11.771Z,-79
2018-12-07T02:07:11.743Z,-79
2018-12-07T02:08:11.851Z,-79
2018-12-07T02:09:11.856Z,-80
2018-12-07T02:10:11.785Z,-79
2018-12-07T02:11:11.679Z,-79
2018-12-07T02:12:11.659Z,-78
2018-12-07T02:13:11.698Z,-80
2018-12-07T02:14:12.032Z,-78
2018-12-07T02:15:11.775Z,-79
2018-12-07T02:16:11.772Z,-79
2018-12-07T02:17:11.704Z,-80
2018-12-07T02:18:11.818Z,-79
2018-12-07T02:19:11.678Z,-79
2018-12-07T02:20:11.752Z,-80
2018-12-07T02:21:11.766Z,-79
2018-12-07T02:22:11.960Z,-78
2018-12-07T02:23:11.880Z,-78
2018-12-07T02:24:11.640Z,-80
2018-12-07T02:25:12.048Z,-80
2018-12-07T02:26:11.687Z,-79
2018-12-07T02:27:11.878Z,-79
2018-12-07T02:28:11.750Z,-80
2018-12-07T02:29:11.631Z,-80
2018-12-07T02:30:11.917Z,-80
2018-12-07T02:31:11.717Z,-79
2018-12-07T02:32:11.741Z,-80
2018-12-07T02:33:11.691Z,-79
2018-12-07T02:34:11.981Z,-79
2018-12-07T02:35:11.645Z,-78
2018-12-07T02:36:11.666Z,-79
2018-12-07T02:37:11.821Z,-79
2018-12-07T02:38:12.064Z,-78
2018-12-07T02:39:11.865Z,-79
2018-12-07T02:40:11.845Z,-78
2018-12-07T02:41:11.862Z,-79
2018-12-07T02:42:11.677Z,-80
2018-12-07T02:43:11.696Z,-80
2018-12-07T02:44:11.856Z,-78
2018-12-07T02:45:11.674Z,-79
2018-12-07T02:46:11.704Z,-80
2018-12-07T02:47:11.832Z,-80
2018-12-07T02:48:12.039Z,-77
2018-12-07T02:49:11.689Z,-79
2018-12-07T02:50:11.629Z,-80
2018-12-07T02:51:11.805Z,-78
2018-12-07T02:52:11.875Z,-79
2018-12-07T02:53:12.007Z,-79
2018-12-07T02:54:12.306Z,-78
2018-12-07T02:55:11.656Z,-79
2018-12-07T02:56:11.637Z,-79
2018-12-07T02:57:12.129Z,-79
2018-12-07T02:58:11.702Z,-79
2018-12-07T02:59:11.732Z,-79
2018-12-07T03:00:11.678Z,-80
2018-12-07T03:01:11.750Z,-78
2018-12-07T03:02:12.037Z,-79
2018-12-07T03:03:11.809Z,-79
2018-12-07T03:04:11.724Z,-79
2018-12-07T03:05:11.644Z,-79
2018-12-07T03:06:11.680Z,-80
2018-12-07T03:07:11.820Z,-79
2018-12-07T03:08:11.887Z,-78
2018-12-07T03:09:11.702Z,-80
2018-12-07T03:10:11.908Z,-79
2018-12-07T03:11:11.627Z,-79
2018-12-07T03:12:11.673Z,-79
2018-12-07T03:13:11.731Z,-78
2018-12-07T03:14:11.600Z,-80
2018-12-07T03:15:11.634Z,-80
2018-12-07T03:16:11.623Z,-79
2018-12-07T03:17:11.745Z,-79
2018-12-07T03:18:11.649Z,-80
2018-12-07T03:19:11.595Z,-79
2018-12-07T03:20:11.632Z,-80
2018-12-07T03:21:11.626Z,-80
2018-12-07T03:22:11.593Z,-79
2018-12-07T03:23:11.599Z,-80
2018-12-07T03:24:11.589Z,-79
2018-12-07T03:25:11.705Z,-79
2018-12-07T03:26:11.649Z,-79
2018-12-07T03:27:11.816Z,-78
2018-12-07T03:28:11.640Z,-78
2018-12-07T03:29:11.642Z,-80
2018-12-07T03:30:11.639Z,-80
2018-12-07T03:31:11.744Z,-80
2018-12-07T03:32:11.986Z,-80
2018-12-07T03:33:11.807Z,-78
2018-12-07T03:34:11.573Z,-80
2018-12-07T03:35:11.644Z,-80
2018-12-07T03:36:11.862Z,-78
2018-12-07T03:37:11.560Z,-79
2018-12-07T03:38:11.665Z,-79
2018-12-07T03:39:11.552Z,-79
2018-12-07T03:40:11.752Z,-80
2018-12-07T03:41:11.899Z,-79
2018-12-07T03:42:11.725Z,-78
2018-12-07T03:43:11.651Z,-79
2018-12-07T03:44:11.811Z,-78
2018-12-07T03:45:11.741Z,-78
2018-12-07T03:46:11.580Z,-80
2018-12-07T03:47:11.608Z,-80
2018-12-07T03:48:11.573Z,-80
2018-12-07T03:49:11.616Z,-79
2018-12-07T03:50:11.659Z,-79
2018-12-07T03:51:11.781Z,-79
2018-12-07T03:52:11.729Z,-77
2018-12-07T03:53:11.643Z,-80
2018-12-07T03:54:11.657Z,-79
2018-12-07T03:55:11.723Z,-80
2018-12-07T03:56:11.632Z,-79
2018-12-07T03:57:12.007Z,-79
2018-12-07T03:58:11.669Z,-79
2018-12-07T03:59:11.607Z,-79
2018-12-07T04:00:11.623Z,-80
2018-12-07T04:01:11.713Z,-79
2018-12-07T04:02:11.618Z,-79
2018-12-07T04:03:11.659Z,-80
2018-12-07T04:04:11.731Z,-78
2018-12-07T04:05:11.619Z,-79
2018-12-07T04:06:11.551Z,-80
2018-12-07T04:07:11.755Z,-80
2018-12-07T04:08:11.695Z,-80
2018-12-07T04:09:11.778Z,-78
2018-12-07T04:10:11.825Z,-77
2018-12-07T04:11:11.663Z,-79
2018-12-07T04:12:11.570Z,-79
2018-12-07T04:13:11.566Z,-81
2018-12-07T04:14:11.867Z,-78
2018-12-07T04:15:11.604Z,-80
2018-12-07T04:16:11.530Z,-80
2018-12-07T04:17:11.558Z,-79
2018-12-07T04:18:11.540Z,-79
2018-12-07T04:19:11.627Z,-80
2018-12-07T04:20:11.580Z,-80
2018-12-07T04:21:11.528Z,-79
2018-12-07T04:22:11.766Z,-79
2018-12-07T04:23:11.727Z,-78
2018-12-07T04:24:11.715Z,-78
2018-12-07T04:25:11.564Z,-79
2018-12-07T04:26:11.661Z,-78
2018-12-07T04:27:11.703Z,-79
2018-12-07T04:28:11.635Z,-78
2018-12-07T04:29:12.457Z,-77
2018-12-07T04:30:11.601Z,-80
2018-12-07T04:31:11.575Z,-79
2018-12-07T04:32:11.834Z,-78
2018-12-07T04:33:11.605Z,-80
2018-12-07T04:34:11.688Z,-78
2018-12-07T04:35:11.650Z,-80
2018-12-07T04:36:11.611Z,-79
2018-12-07T04:37:11.717Z,-79
2018-12-07T04:38:11.638Z,-79
2018-12-07T04:39:11.819Z,-79
2018-12-07T04:40:11.569Z,-80
2018-12-07T04:41:11.668Z,-79
2018-12-07T04:42:11.700Z,-79
2018-12-07T04:43:11.985Z,-79
2018-12-07T04:44:11.784Z,-78
2018-12-07T04:45:11.717Z,-79
2018-12-07T04:46:11.781Z,-78
2018-12-07T04:47:11.688Z,-81
2018-12-07T04:48:11.559Z,-79
2018-12-07T04:49:11.593Z,-80
2018-12-07T04:50:11.642Z,-81
2018-12-07T04:51:11.611Z,-79
2018-12-07T04:52:11.499Z,-81
2018-12-07T04:53:11.506Z,-80
2018-12-07T04:54:11.678Z,-79
2018-12-07T04:55:11.536Z,-80
2018-12-07T04:56:11.511Z,-80
2018-12-07T04:57:11.535Z,-79
2018-12-07T04:58:11.654Z,-80
2018-12-07T04:59:11.786Z,-78
2018-12-07T05:00:11.605Z,-80
2018-12-07T05:01:11.521Z,-81
2018-12-07T05:02:11.608Z,-81
2018-12-07T05:03:11.683Z,-81
2018-12-07T05:04:11.467Z,-81
2018-12-07T05:05:11.649Z,-81
2018-12-07T05:06:11.538Z,-80
2018-12-07T05:07:11.571Z,-80
2018-12-07T05:08:11.576Z,-80
2018-12-07T05:09:11.684Z,-83
2018-12-07T05:10:11.500Z,-80
2018-12-07T05:11:11.535Z,-81
2018-12-07T05:12:11.528Z,-81
2018-12-07T05:13:11.463Z,-81
2018-12-07T05:14:12.091Z,-83
2018-12-07T05:15:11.508Z,-81
2018-12-07T05:16:11.697Z,-83
2018-12-07T05:17:11.639Z,-81
2018-12-07T05:18:11.602Z,-82
2018-12-07T05:19:12.043Z,-83
2018-12-07T05:20:11.654Z,-82
2018-12-07T05:21:11.659Z,-81
2018-12-07T05:22:11.636Z,-81
2018-12-07T05:23:11.728Z,-83
2018-12-07T05:24:11.558Z,-80
2018-12-07T05:25:11.516Z,-80
2018-12-07T05:26:11.609Z,-80
2018-12-07T05:27:11.520Z,-80
2018-12-07T05:28:11.499Z,-79
2018-12-07T05:29:11.506Z,-79
2018-12-07T05:30:11.860Z,-77
2018-12-07T05:31:12.335Z,-82
2018-12-07T05:32:11.481Z,-81
2018-12-07T05:33:11.506Z,-80
2018-12-07T05:34:11.843Z,-80
2018-12-07T05:35:11.810Z,-83
2018-12-07T05:36:11.662Z,-82
2018-12-07T05:37:11.863Z,-77
2018-12-07T05:38:11.755Z,-78
2018-12-07T05:39:12.289Z,-77
2018-12-07T05:40:11.577Z,-79
2018-12-07T05:41:11.627Z,-79
2018-12-07T05:42:11.418Z,-80
2018-12-07T05:43:11.805Z,-78
2018-12-07T05:44:11.604Z,-80
2018-12-07T05:45:11.675Z,-80
2018-12-07T05:46:11.887Z,-79
2018-12-07T05:47:11.536Z,-80
2018-12-07T05:48:11.493Z,-80
2018-12-07T05:49:12.391Z,-77
2018-12-07T05:50:11.610Z,-80
2018-12-07T05:51:11.486Z,-80
2018-12-07T05:52:11.675Z,-85
2018-12-07T05:53:11.628Z,-83
2018-12-07T05:54:11.430Z,-83
2018-12-07T05:55:11.428Z,-83
2018-12-07T05:56:11.497Z,-80
2018-12-07T05:57:11.494Z,-79
2018-12-07T05:58:11.526Z,-80
2018-12-07T05:59:11.551Z,-83
2018-12-07T06:00:11.915Z,-80
2018-12-07T06:01:11.453Z,-80
2018-12-07T06:02:11.659Z,-77
2018-12-07T06:03:11.577Z,-79
2018-12-07T06:04:11.553Z,-78
2018-12-07T06:05:11.575Z,-79
2018-12-07T06:06:11.530Z,-78
2018-12-07T06:07:11.598Z,-79
2018-12-07T06:08:11.580Z,-78
2018-12-07T06:09:11.588Z,-78
2018-12-07T06:10:11.453Z,-79
2018-12-07T06:11:11.552Z,-78
2018-12-07T06:12:11.452Z,-78
2018-12-07T06:13:11.440Z,-78
2018-12-07T06:14:11.482Z,-79
2018-12-07T06:15:11.865Z,-76
2018-12-07T06:16:11.771Z,-76
2018-12-07T06:17:11.667Z,-76
2018-12-07T06:18:11.481Z,-79
2018-12-07T06:19:11.721Z,-77
2018-12-07T06:20:11.423Z,-79
2018-12-07T06:21:11.537Z,-79
2018-12-07T06:22:11.595Z,-77
2018-12-07T06:23:11.365Z,-79
2018-12-07T06:24:11.448Z,-78
2018-12-07T06:25:11.558Z,-78
2018-12-07T06:26:11.397Z,-79
2018-12-07T06:27:11.395Z,-79
2018-12-07T06:28:11.491Z,-79
2018-12-07T06:29:11.736Z,-79
2018-12-07T06:30:11.484Z,-79
2018-12-07T06:31:12.664Z,-78
2018-12-07T06:32:11.966Z,-76
2018-12-07T06:33:11.405Z,-78
2018-12-07T06:34:11.668Z,-76
2018-12-07T06:35:11.424Z,-78
2018-12-07T06:36:11.355Z,-77
2018-12-07T06:37:11.364Z,-78
2018-12-07T06:38:11.418Z,-78
2018-12-07T06:39:11.605Z,-78
2018-12-07T06:40:11.370Z,-78
2018-12-07T06:41:11.363Z,-78
2018-12-07T06:42:11.510Z,-77
2018-12-07T06:43:11.684Z,-76
2018-12-07T06:44:11.541Z,-79
2018-12-07T06:45:11.395Z,-79
2018-12-07T06:46:11.512Z,-77
2018-12-07T06:47:11.512Z,-76
2018-12-07T06:48:11.546Z,-77
2018-12-07T06:49:11.571Z,-75
2018-12-07T06:50:11.471Z,-78
2018-12-07T06:51:11.573Z,-77
2018-12-07T06:52:11.353Z,-78
2018-12-07T06:53:11.483Z,-78
2018-12-07T06:54:11.623Z,-78
2018-12-07T06:55:11.348Z,-78
2018-12-07T06:56:11.387Z,-78
2018-12-07T06:57:11.309Z,-78
2018-12-07T06:58:11.383Z,-79
2018-12-07T06:59:11.436Z,-78
2018-12-07T07:00:11.366Z,-78
2018-12-07T07:01:11.529Z,-78
2018-12-07T07:02:11.732Z,-79
2018-12-07T07:03:11.438Z,-79
2018-12-07T07:04:11.321Z,-79
2018-12-07T07:05:11.555Z,-80
2018-12-07T07:06:11.543Z,-80
2018-12-07T07:07:11.521Z,-80
2018-12-07T07:08:11.358Z,-79
2018-12-07T07:09:11.449Z,-79
2018-12-07T07:10:11.319Z,-79
2018-12-07T07:11:11.482Z,-80
2018-12-07T07:12:11.427Z,-79
2018-12-07T07:13:11.559Z,-79
2018-12-07T07:14:11.501Z,-79
2018-12-07T07:15:11.353Z,-80
2018-12-07T07:16:11.356Z,-80
2018-12-07T07:17:11.722Z,-79
2018-12-07T07:18:11.406Z,-80
2018-12-07T07:19:11.370Z,-79
2018-12-07T07:20:11.436Z,-79
2018-12-07T07:21:12.134Z,-79
2018-12-07T07:22:11.314Z,-79
2018-12-07T07:23:11.323Z,-78
2018-12-07T07:24:11.483Z,-80
2018-12-07T07:25:11.403Z,-80
2018-12-07T07:26:11.684Z,-80
2018-12-07T07:27:11.317Z,-80
2018-12-07T07:28:11.308Z,-80
2018-12-07T07:29:11.512Z,-80
2018-12-07T07:30:11.342Z,-80
2018-12-07T07:31:12.153Z,-80
2018-12-07T07:32:11.341Z,-80
2018-12-07T07:33:11.512Z,-80
2018-12-07T07:34:11.591Z,-80
2018-12-07T07:35:11.472Z,-80
2018-12-07T07:36:11.638Z,-79
2018-12-07T07:37:11.373Z,-80
2018-12-07T07:38:11.307Z,-80
2018-12-07T07:39:11.432Z,-80
2018-12-07T07:40:11.304Z,-80
2018-12-07T07:41:11.484Z,-79
2018-12-07T07:42:11.284Z,-80
2018-12-07T07:43:11.363Z,-79
2018-12-07T07:44:11.312Z,-80
2018-12-07T07:45:11.374Z,-79
2018-12-07T07:46:11.309Z,-79
2018-12-07T07:47:11.303Z,-80
2018-12-07T07:48:11.301Z,-80
2018-12-07T07:49:11.873Z,-80
2018-12-07T07:50:11.310Z,-80
2018-12-07T07:51:11.470Z,-80
2018-12-07T07:52:11.466Z,-79
2018-12-07T07:53:11.570Z,-80
2018-12-07T07:54:11.494Z,-80
2018-12-07T07:55:11.464Z,-80
2018-12-07T07:56:16.060Z,-80
2018-12-07T07:57:11.299Z,-80
2018-12-07T07:58:11.393Z,-80
2018-12-07T07:59:11.260Z,-80
2018-12-07T08:00:11.301Z,-80
2018-12-07T08:01:11.634Z,-80
2018-12-07T08:02:11.259Z,-80
2018-12-07T08:03:11.306Z,-80
2018-12-07T08:04:11.243Z,-79
2018-12-07T08:05:11.281Z,-80
2018-12-07T08:06:11.390Z,-80
2018-12-07T08:07:11.428Z,-80
2018-12-07T08:08:11.239Z,-80
2018-12-07T08:09:11.297Z,-80
2018-12-07T08:10:11.283Z,-80
2018-12-07T08:11:11.308Z,-80
2018-12-07T08:12:11.316Z,-80
2018-12-07T08:13:11.289Z,-80
2018-12-07T08:14:11.285Z,-80
2018-12-07T08:15:11.287Z,-80
2018-12-07T08:16:11.369Z,-80
2018-12-07T08:17:11.268Z,-80
2018-12-07T08:18:11.239Z,-80
2018-12-07T08:19:11.231Z,-80
2018-12-07T08:20:11.394Z,-80
2018-12-07T08:21:11.282Z,-80
2018-12-07T08:22:11.269Z,-80
2018-12-07T08:23:15.472Z,-80
2018-12-07T08:24:11.485Z,-80
2018-12-07T08:25:11.312Z,-79
2018-12-07T08:26:11.584Z,-79
2018-12-07T08:27:11.440Z,-80
2018-12-07T08:28:11.275Z,-80
2018-12-07T08:29:11.351Z,-80
2018-12-07T08:30:11.635Z,-80
2018-12-07T08:31:12.117Z,-80
2018-12-07T08:32:11.390Z,-80
2018-12-07T08:33:11.259Z,-80
2018-12-07T08:34:11.471Z,-77
2018-12-07T08:35:12.099Z,-76
2018-12-07T08:36:11.626Z,-77
2018-12-07T08:37:11.604Z,-76
2018-12-07T08:38:11.587Z,-77
2018-12-07T08:39:11.209Z,-79
2018-12-07T08:40:11.287Z,-78
2018-12-07T08:41:11.361Z,-79
2018-12-07T08:42:11.673Z,-77
2018-12-07T08:43:11.358Z,-79
2018-12-07T08:44:11.418Z,-77
2018-12-07T08:45:11.229Z,-78
2018-12-07T08:46:11.444Z,-77
2018-12-07T08:47:11.556Z,-76
2018-12-07T08:48:11.480Z,-76
2018-12-07T08:49:11.375Z,-78
2018-12-07T08:50:11.493Z,-77
2018-12-07T08:51:11.224Z,-78
2018-12-07T08:52:11.336Z,-78
2018-12-07T08:53:11.693Z,-76
2018-12-07T08:54:11.318Z,-77
2018-12-07T08:55:11.264Z,-77
2018-12-07T08:56:11.277Z,-79
2018-12-07T08:57:11.352Z,-80
2018-12-07T08:58:11.319Z,-81
2018-12-07T08:59:11.524Z,-79
2018-12-07T09:00:11.188Z,-80
2018-12-07T09:01:11.356Z,-80
2018-12-07T09:02:11.506Z,-79
2018-12-07T09:03:11.449Z,-79
2018-12-07T09:04:11.354Z,-81
2018-12-07T09:05:11.324Z,-80
2018-12-07T09:06:11.500Z,-79
2018-12-07T09:07:11.271Z,-81
2018-12-07T09:08:15.936Z,-80
2018-12-07T09:09:11.374Z,-80
2018-12-07T09:10:11.186Z,-81
2018-12-07T09:11:11.218Z,-81
2018-12-07T09:12:11.575Z,-79
2018-12-07T09:13:11.482Z,-80
2018-12-07T09:14:11.320Z,-80
2018-12-07T09:15:11.289Z,-81
2018-12-07T09:16:11.525Z,-79
2018-12-07T09:17:11.258Z,-80
2018-12-07T09:18:11.968Z,-79
2018-12-07T09:19:11.218Z,-79
2018-12-07T09:20:11.194Z,-81
2018-12-07T09:21:11.298Z,-80
2018-12-07T09:22:11.410Z,-79
2018-12-07T09:23:11.482Z,-79
2018-12-07T09:24:11.547Z,-80
2018-12-07T09:25:11.364Z,-79
2018-12-07T09:26:11.233Z,-81
2018-12-07T09:27:11.170Z,-81
2018-12-07T09:28:11.335Z,-78
2018-12-07T09:29:11.668Z,-79
2018-12-07T09:30:11.315Z,-81
2018-12-07T09:31:11.374Z,-79
2018-12-07T09:32:11.266Z,-80
2018-12-07T09:33:11.267Z,-80
2018-12-07T09:34:11.484Z,-79
2018-12-07T09:35:11.307Z,-79
2018-12-07T09:36:11.398Z,-83
2018-12-07T09:37:11.441Z,-84
2018-12-07T09:38:13.745Z,-84
2018-12-07T09:39:11.413Z,-83
2018-12-07T09:40:11.215Z,-83
2018-12-07T09:41:11.194Z,-83
2018-12-07T09:42:11.196Z,-83
2018-12-07T09:43:11.217Z,-83
2018-12-07T09:44:11.214Z,-84
2018-12-07T09:45:11.307Z,-83
2018-12-07T09:46:11.224Z,-83
2018-12-07T09:47:11.350Z,-84
2018-12-07T09:48:11.240Z,-83
2018-12-07T09:49:11.233Z,-83
2018-12-07T09:50:11.151Z,-82
2018-12-07T09:51:11.434Z,-83
2018-12-07T09:52:11.252Z,-83
2018-12-07T09:53:11.320Z,-83
2018-12-07T09:54:11.185Z,-82
2018-12-07T09:55:11.170Z,-83
2018-12-07T09:56:11.302Z,-82
2018-12-07T09:57:11.529Z,-82
2018-12-07T09:58:11.173Z,-83
2018-12-07T09:59:11.154Z,-83
2018-12-07T10:00:11.493Z,-84
2018-12-07T10:01:11.280Z,-82
2018-12-07T10:02:11.510Z,-84
2018-12-07T10:03:11.514Z,-83
2018-12-07T10:04:11.266Z,-82
2018-12-07T10:05:11.537Z,-83
2018-12-07T10:06:11.440Z,-83
2018-12-07T10:07:11.331Z,-83
2018-12-07T10:08:11.197Z,-83
2018-12-07T10:09:11.941Z,-83
2018-12-07T10:10:11.242Z,-82
2018-12-07T10:11:11.238Z,-82
2018-12-07T10:12:11.291Z,-83
2018-12-07T10:13:11.262Z,-82
2018-12-07T10:14:11.344Z,-83
2018-12-07T10:15:11.197Z,-82
2018-12-07T10:16:11.352Z,-82
2018-12-07T10:17:11.355Z,-83
2018-12-07T10:18:11.320Z,-83
2018-12-07T10:19:11.303Z,-83
2018-12-07T10:20:11.341Z,-83
2018-12-07T10:21:11.306Z,-83
2018-12-07T10:22:11.592Z,-83
2018-12-07T10:23:11.216Z,-82
2018-12-07T10:24:11.128Z,-83
2018-12-07T10:25:11.197Z,-82
2018-12-07T10:26:11.263Z,-83
2018-12-07T10:27:11.178Z,-81
2018-12-07T10:28:11.285Z,-83
2018-12-07T10:29:11.208Z,-81
2018-12-07T10:30:11.231Z,-82
2018-12-07T10:31:11.359Z,-82
2018-12-07T10:32:11.099Z,-82
2018-12-07T10:33:11.318Z,-82
2018-12-07T10:34:11.241Z,-82
2018-12-07T10:35:11.180Z,-82
2018-12-07T10:36:11.246Z,-81
2018-12-07T10:37:11.341Z,-82
2018-12-07T10:38:11.272Z,-83
2018-12-07T10:39:11.180Z,-83
2018-12-07T10:40:11.259Z,-82
2018-12-07T10:41:11.225Z,-81
2018-12-07T10:42:12.808Z,-82
2018-12-07T10:43:11.417Z,-83
2018-12-07T10:44:11.114Z,-82
2018-12-07T10:45:11.248Z,-82
2018-12-07T10:46:11.273Z,-82
2018-12-07T10:47:11.378Z,-83
2018-12-07T10:48:11.203Z,-81
2018-12-07T10:49:11.481Z,-82
2018-12-07T10:50:11.077Z,-82
2018-12-07T10:51:11.131Z,-82
2018-12-07T10:52:11.260Z,-81
2018-12-07T10:53:11.170Z,-82
2018-12-07T10:54:11.436Z,-82
2018-12-07T10:55:11.282Z,-82
2018-12-07T10:56:11.393Z,-82
2018-12-07T10:57:11.196Z,-82
2018-12-07T10:58:11.341Z,-83
2018-12-07T10:59:12.107Z,-82
2018-12-07T11:00:11.055Z,-82
2018-12-07T11:01:11.097Z,-83
2018-12-07T11:02:11.298Z,-83
2018-12-07T11:03:11.117Z,-82
2018-12-07T11:04:11.050Z,-82
2018-12-07T11:05:11.244Z,-83
2018-12-07T11:06:11.337Z,-82
2018-12-07T11:07:11.164Z,-82
2018-12-07T11:08:11.370Z,-83
2018-12-07T11:09:11.140Z,-82
2018-12-07T11:10:11.125Z,-83
2018-12-07T11:11:11.115Z,-82
2018-12-07T11:12:11.072Z,-82
2018-12-07T11:13:11.320Z,-82
2018-12-07T11:14:11.221Z,-82
2018-12-07T11:15:11.292Z,-83
2018-12-07T11:16:11.289Z,-83
2018-12-07T11:17:11.096Z,-83
2018-12-07T11:18:11.082Z,-82
2018-12-07T11:19:11.151Z,-82
2018-12-07T11:20:11.106Z,-82
2018-12-07T11:21:11.359Z,-83
2018-12-07T11:22:11.191Z,-82
2018-12-07T11:23:11.271Z,-82
2018-12-07T11:24:11.034Z,-83
2018-12-07T11:25:11.109Z,-82
2018-12-07T11:26:11.039Z,-81
2018-12-07T11:27:11.037Z,-80
2018-12-07T11:28:10.999Z,-79
2018-12-07T11:29:11.047Z,-79
2018-12-07T11:30:11.038Z,-79
2018-12-07T11:31:11.029Z,-79
2018-12-07T11:32:11.159Z,-79
2018-12-07T11:33:11.008Z,-80
2018-12-07T11:34:11.030Z,-79
2018-12-07T11:35:11.007Z,-79
2018-12-07T11:36:11.347Z,-79
2018-12-07T11:37:11.093Z,-79
2018-12-07T11:38:11.298Z,-79
2018-12-07T11:39:13.074Z,-77
2018-12-07T11:40:11.453Z,-77
2018-12-07T11:41:11.269Z,-78
2018-12-07T11:42:11.355Z,-77
2018-12-07T11:43:11.216Z,-77
2018-12-07T11:44:11.141Z,-79
2018-12-07T11:45:11.148Z,-79
2018-12-07T11:46:11.044Z,-79
2018-12-07T11:47:11.229Z,-77
2018-12-07T11:48:11.232Z,-79
2018-12-07T11:49:11.262Z,-77
2018-12-07T11:50:11.160Z,-80
2018-12-07T11:51:11.090Z,-79
2018-12-07T11:52:11.266Z,-78
2018-12-07T11:53:11.307Z,-77
2018-12-07T11:54:11.463Z,-77
2018-12-07T11:55:11.230Z,-79
2018-12-07T11:56:11.257Z,-78
2018-12-07T11:57:11.225Z,-78
2018-12-07T11:58:11.403Z,-79
2018-12-07T11:59:11.531Z,-77
2018-12-07T12:00:11.136Z,-81
2018-12-07T12:01:11.242Z,-80
2018-12-07T12:02:11.452Z,-78
2018-12-07T12:03:11.294Z,-78
2018-12-07T12:04:11.402Z,-76
2018-12-07T12:05:11.343Z,-78
2018-12-07T12:06:11.219Z,-78
2018-12-07T12:07:11.145Z,-79
2018-12-07T12:08:11.170Z,-79
2018-12-07T12:09:11.227Z,-79
2018-12-07T12:10:11.271Z,-79
2018-12-07T12:11:11.277Z,-79
2018-12-07T12:12:11.357Z,-77
2018-12-07T12:13:11.316Z,-77
2018-12-07T12:14:11.093Z,-78
2018-12-07T12:15:11.039Z,-81
2018-12-07T12:16:11.127Z,-82
2018-12-07T12:17:11.221Z,-82
2018-12-07T12:18:11.020Z,-81
2018-12-07T12:19:11.246Z,-81
2018-12-07T12:20:11.118Z,-79
2018-12-07T12:21:11.481Z,-78
2018-12-07T12:22:11.196Z,-79
2018-12-07T12:23:11.243Z,-79
2018-12-07T12:24:11.168Z,-79
2018-12-07T12:25:10.988Z,-79
2018-12-07T12:26:11.386Z,-79
2018-12-07T12:27:10.977Z,-79
2018-12-07T12:28:10.999Z,-79
2018-12-07T12:29:10.956Z,-79
2018-12-07T12:30:11.116Z,-79
2018-12-07T12:31:11.029Z,-80
2018-12-07T12:32:10.996Z,-79
2018-12-07T12:33:10.967Z,-79
2018-12-07T12:34:11.026Z,-79
2018-12-07T12:35:11.150Z,-77
2018-12-07T12:36:17.623Z,-79
2018-12-07T12:37:11.165Z,-78
2018-12-07T12:38:11.129Z,-79
2018-12-07T12:39:10.966Z,-79
2018-12-07T12:40:10.949Z,-79
2018-12-07T12:41:10.956Z,-79
2018-12-07T12:42:11.083Z,-77
2018-12-07T12:43:11.106Z,-79
2018-12-07T12:44:11.100Z,-78
2018-12-07T12:45:10.946Z,-78
2018-12-07T12:46:11.735Z,-76
2018-12-07T12:47:11.131Z,-78
2018-12-07T12:48:11.266Z,-78
2018-12-07T12:49:10.922Z,-80
2018-12-07T12:50:10.963Z,-79
2018-12-07T12:51:11.142Z,-78
2018-12-07T12:52:10.931Z,-79
2018-12-07T12:53:10.953Z,-79
2018-12-07T12:54:10.894Z,-79
2018-12-07T12:55:10.951Z,-79
2018-12-07T12:56:11.249Z,-78
2018-12-07T12:57:11.148Z,-79
2018-12-07T12:58:11.210Z,-78
2018-12-07T12:59:11.186Z,-78
2018-12-07T13:00:10.931Z,-79
2018-12-07T13:01:11.006Z,-78
2018-12-07T13:02:10.932Z,-79
2018-12-07T13:03:11.293Z,-77
2018-12-07T13:04:10.997Z,-79
2018-12-07T13:05:10.916Z,-81
2018-12-07T13:06:10.949Z,-81
2018-12-07T13:07:11.288Z,-82
2018-12-07T13:08:10.949Z,-80
2018-12-07T13:09:11.064Z,-81
2018-12-07T13:10:11.101Z,-81
2018-12-07T13:11:11.727Z,-81
2018-12-07T13:12:11.104Z,-81
2018-12-07T13:13:10.974Z,-82
2018-12-07T13:14:11.071Z,-82
2018-12-07T13:15:11.213Z,-82
2018-12-07T13:16:11.234Z,-82
2018-12-07T13:17:10.967Z,-81
2018-12-07T13:18:11.247Z,-81
2018-12-07T13:19:11.127Z,-82
2018-12-07T13:20:11.231Z,-81
2018-12-07T13:21:11.141Z,-80
2018-12-07T13:22:11.048Z,-81
2018-12-07T13:23:11.085Z,-81
2018-12-07T13:24:10.901Z,-81
2018-12-07T13:25:11.077Z,-81
2018-12-07T13:26:11.179Z,-81
2018-12-07T13:27:13.155Z,-81
2018-12-07T13:28:11.268Z,-81
2018-12-07T13:29:11.056Z,-81
2018-12-07T13:30:10.999Z,-81
2018-12-07T13:31:10.938Z,-81
2018-12-07T13:32:10.919Z,-81
2018-12-07T13:33:11.201Z,-81
2018-12-07T13:34:10.941Z,-81
2018-12-07T13:35:11.018Z,-82
2018-12-07T13:36:11.075Z,-81
2018-12-07T13:37:11.238Z,-81
2018-12-07T13:38:11.059Z,-80
2018-12-07T13:39:10.922Z,-81
2018-12-07T13:40:12.157Z,-82
2018-12-07T13:41:12.214Z,-82
2018-12-07T13:42:11.980Z,-81
2018-12-07T13:43:12.021Z,-82
2018-12-07T13:44:12.231Z,-81
2018-12-07T13:45:12.768Z,-81
2018-12-07T13:46:12.873Z,-80